createdAt,value
2022-10-28T00:04:41.459Z,100.00
2022-10-28T00:15:03.017Z,100.00
2022-10-28T00:25:24.985Z,100.00
2022-10-28T00:35:46.362Z,100.00
2022-10-28T00:46:14.039Z,100.00
2022-10-28T00:56:37.980Z,100.00
2022-10-28T01:07:00.262Z,100.00
2022-10-28T01:17:24.620Z,100.00
2022-10-28T01:28:04.835Z,100.00
2022-10-28T01:38:32.236Z,100.00
2022-10-28T01:48:58.906Z,100.00
2022-10-28T01:59:22.368Z,100.00
2022-10-28T02:09:51.605Z,100.00
2022-10-28T02:20:16.038Z,100.00
2022-10-28T02:30:43.705Z,100.00
2022-10-28T02:41:13.689Z,100.00
2022-10-28T02:51:37.527Z,100.00
2022-10-28T03:01:58.966Z,100.00
2022-10-28T03:12:20.398Z,100.00
2022-10-28T03:22:45.015Z,100.00
2022-10-28T03:33:06.410Z,100.00
2022-10-28T03:43:27.771Z,100.00
2022-10-28T03:53:49.123Z,100.00
2022-10-28T04:04:10.512Z,100.00
2022-10-28T04:14:31.908Z,100.00
2022-10-28T04:24:54.648Z,100.00
2022-10-28T04:35:16.062Z,100.00
2022-10-28T04:45:37.909Z,100.00
2022-10-28T04:55:59.657Z,100.00
2022-10-28T05:06:21.022Z,100.00
2022-10-28T05:16:42.397Z,100.00
2022-10-28T05:27:04.384Z,100.00
2022-10-28T05:37:25.728Z,100.00
2022-10-28T05:47:47.740Z,100.00
2022-10-28T05:58:10.077Z,100.00
2022-10-28T06:08:31.485Z,100.00
2022-10-28T06:18:51.400Z,100.00
2022-10-28T06:29:12.840Z,100.00
2022-10-28T06:39:34.322Z,100.00
2022-10-28T06:49:57.187Z,100.00
2022-10-28T07:00:20.462Z,100.00
2022-10-28T07:10:42.171Z,100.00
2022-10-28T07:21:03.754Z,100.00
2022-10-28T07:31:25.312Z,100.00
2022-10-28T07:41:46.887Z,100.00
2022-10-28T07:52:09.130Z,100.00
2022-10-28T08:02:30.566Z,100.00
2022-10-28T08:12:51.936Z,100.00
2022-10-28T08:23:13.440Z,100.00
2022-10-28T08:33:35.550Z,100.00
2022-10-28T08:44:02.885Z,100.00
2022-10-28T08:54:31.249Z,100.00
2022-10-28T09:05:17.435Z,100.00
2022-10-28T09:15:44.919Z,100.00
2022-10-28T09:26:06.352Z,96.01
2022-10-28T09:36:30.781Z,94.70
2022-10-28T09:46:55.381Z,91.43
2022-10-28T09:57:17.531Z,91.44
2022-10-28T10:07:40.858Z,89.43
2022-10-28T10:18:04.166Z,85.23
2022-10-28T10:28:26.665Z,87.28
2022-10-28T10:38:55.683Z,85.38
2022-10-28T10:49:18.579Z,87.51
2022-10-28T10:59:40.000Z,87.11
2022-10-28T11:10:01.961Z,84.94
2022-10-28T11:20:24.983Z,86.79
2022-10-28T11:30:46.385Z,85.84
2022-10-28T11:41:07.742Z,85.24
2022-10-28T11:51:35.283Z,83.09
2022-10-28T12:01:56.934Z,84.36
2022-10-28T12:12:21.451Z,85.74
2022-10-28T12:22:57.549Z,86.73
2022-10-28T12:33:22.769Z,84.10
2022-10-28T12:43:47.189Z,83.44
2022-10-28T12:54:20.457Z,84.00
2022-10-28T13:04:41.831Z,85.72
2022-10-28T13:15:12.416Z,86.16
2022-10-28T13:25:34.219Z,89.19
2022-10-28T13:36:07.527Z,86.91
2022-10-28T13:46:47.772Z,87.12
2022-10-28T13:57:13.556Z,88.54
2022-10-28T14:07:36.540Z,88.72
2022-10-28T14:28:59.233Z,90.09
2022-10-28T14:39:23.785Z,90.23
2022-10-28T14:50:14.569Z,89.38
2022-10-28T15:00:38.720Z,90.05
2022-10-28T15:11:00.121Z,89.09
2022-10-28T15:21:22.247Z,88.65
2022-10-28T15:32:02.455Z,86.38
2022-10-28T15:42:30.594Z,88.10
2022-10-28T15:52:54.087Z,87.75
2022-10-28T16:03:26.284Z,88.94
2022-10-28T16:13:48.959Z,87.88
2022-10-28T16:24:10.603Z,88.23
2022-10-28T16:34:31.999Z,86.93
2022-10-28T16:44:53.467Z,85.74
2022-10-28T16:55:19.504Z,85.42
2022-10-28T17:05:40.979Z,85.14
2022-10-28T17:16:02.340Z,85.75
2022-10-28T17:26:23.791Z,86.34
2022-10-28T18:32:57.107Z,91.34
2022-10-28T18:43:19.808Z,91.39
2022-10-28T18:53:42.964Z,92.01
2022-10-28T19:04:05.624Z,92.50
2022-10-28T19:14:27.673Z,93.21
2022-10-28T19:24:49.394Z,94.02
2022-10-28T19:35:10.849Z,94.14
2022-10-28T19:45:32.499Z,95.00
2022-10-28T19:55:58.237Z,95.58
2022-10-28T20:06:21.251Z,95.84
2022-10-28T20:16:43.909Z,96.53
2022-10-28T20:27:05.413Z,98.06
2022-10-28T20:37:27.109Z,98.99
2022-10-28T20:47:48.759Z,99.59
2022-10-28T20:58:10.413Z,98.99
2022-10-28T21:08:32.053Z,99.03
2022-10-28T21:18:54.078Z,99.33
2022-10-28T21:29:15.727Z,100.00
2022-10-28T21:39:39.727Z,100.00
2022-10-28T21:50:01.398Z,100.00
2022-10-28T22:00:23.078Z,100.00
2022-10-28T22:10:44.863Z,100.00
2022-10-28T22:21:14.081Z,100.00
2022-10-28T22:31:35.450Z,100.00
2022-10-28T22:41:56.840Z,100.00
2022-10-28T22:52:18.479Z,100.00
2022-10-28T23:02:40.301Z,100.00
2022-10-28T23:13:02.602Z,100.00
2022-10-28T23:23:24.265Z,100.00
2022-10-28T23:33:45.837Z,100.00
2022-10-28T23:44:07.503Z,100.00
2022-10-28T23:54:28.980Z,100.00
